sensor_id;sensor_type;location;lat;lon;timestamp;P1;durP1;ratioP1;P2;durP2;ratioP2
33495;SDS011;19836;55.812;37.560;2024-01-25T00:01:48;15.93;;;9.60;;
33495;SDS011;19836;55.812;37.560;2024-01-25T00:04:14;13.32;;;8.05;;
33495;SDS011;19836;55.812;37.560;2024-01-25T00:06:41;14.10;;;8.70;;
33495;SDS011;19836;55.812;37.560;2024-01-25T00:09:10;15.05;;;9.95;;
33495;SDS011;19836;55.812;37.560;2024-01-25T00:11:36;13.32;;;9.50;;
33495;SDS011;19836;55.812;37.560;2024-01-25T00:14:03;12.90;;;8.43;;
33495;SDS011;19836;55.812;37.560;2024-01-25T00:16:30;15.10;;;9.38;;
33495;SDS011;19836;55.812;37.560;2024-01-25T00:18:56;15.05;;;10.38;;
33495;SDS011;19836;55.812;37.560;2024-01-25T00:21:22;14.27;;;9.48;;
33495;SDS011;19836;55.812;37.560;2024-01-25T00:23:49;15.75;;;9.95;;
33495;SDS011;19836;55.812;37.560;2024-01-25T00:26:15;15.48;;;9.90;;
33495;SDS011;19836;55.812;37.560;2024-01-25T00:28:42;14.05;;;10.02;;
33495;SDS011;19836;55.812;37.560;2024-01-25T00:31:08;13.07;;;8.75;;
33495;SDS011;19836;55.812;37.560;2024-01-25T00:33:35;15.18;;;9.00;;
33495;SDS011;19836;55.812;37.560;2024-01-25T00:36:01;16.45;;;9.88;;
33495;SDS011;19836;55.812;37.560;2024-01-25T00:38:27;17.13;;;10.50;;
33495;SDS011;19836;55.812;37.560;2024-01-25T00:43:35;14.02;;;9.40;;
33495;SDS011;19836;55.812;37.560;2024-01-25T00:46:02;14.95;;;9.98;;
33495;SDS011;19836;55.812;37.560;2024-01-25T00:48:39;16.67;;;10.00;;
33495;SDS011;19836;55.812;37.560;2024-01-25T00:51:10;14.60;;;9.52;;
33495;SDS011;19836;55.812;37.560;2024-01-25T00:54:14;17.35;;;10.98;;
33495;SDS011;19836;55.812;37.560;2024-01-25T00:56:41;18.30;;;9.85;;
33495;SDS011;19836;55.812;37.560;2024-01-25T00:59:08;16.42;;;10.25;;
33495;SDS011;19836;55.812;37.560;2024-01-25T01:02:01;17.23;;;10.18;;
33495;SDS011;19836;55.812;37.560;2024-01-25T01:04:30;16.70;;;10.18;;
33495;SDS011;19836;55.812;37.560;2024-01-25T01:07:03;14.25;;;10.43;;
33495;SDS011;19836;55.812;37.560;2024-01-25T01:09:42;17.13;;;10.15;;
33495;SDS011;19836;55.812;37.560;2024-01-25T01:14:43;17.65;;;11.02;;
33495;SDS011;19836;55.812;37.560;2024-01-25T01:17:12;17.60;;;10.07;;
33495;SDS011;19836;55.812;37.560;2024-01-25T01:19:40;15.82;;;10.15;;
33495;SDS011;19836;55.812;37.560;2024-01-25T01:22:07;17.70;;;10.57;;
33495;SDS011;19836;55.812;37.560;2024-01-25T01:24:33;15.40;;;9.02;;
33495;SDS011;19836;55.812;37.560;2024-01-25T01:26:59;15.32;;;10.65;;
33495;SDS011;19836;55.812;37.560;2024-01-25T01:31:55;13.10;;;10.05;;
33495;SDS011;19836;55.812;37.560;2024-01-25T01:34:21;14.07;;;10.75;;
33495;SDS011;19836;55.812;37.560;2024-01-25T01:36:47;14.23;;;10.23;;
33495;SDS011;19836;55.812;37.560;2024-01-25T01:39:14;17.63;;;10.40;;
33495;SDS011;19836;55.812;37.560;2024-01-25T01:41:42;15.98;;;10.45;;
33495;SDS011;19836;55.812;37.560;2024-01-25T01:44:12;17.85;;;10.55;;
33495;SDS011;19836;55.812;37.560;2024-01-25T01:46:38;17.17;;;10.45;;
33495;SDS011;19836;55.812;37.560;2024-01-25T01:49:10;15.35;;;9.95;;
33495;SDS011;19836;55.812;37.560;2024-01-25T01:51:38;16.35;;;11.20;;
33495;SDS011;19836;55.812;37.560;2024-01-25T01:54:08;11.60;;;7.55;;
33495;SDS011;19836;55.812;37.560;2024-01-25T01:56:35;14.95;;;10.38;;
33495;SDS011;19836;55.812;37.560;2024-01-25T01:59:04;14.52;;;8.95;;
33495;SDS011;19836;55.812;37.560;2024-01-25T02:01:31;14.63;;;9.95;;
33495;SDS011;19836;55.812;37.560;2024-01-25T02:03:58;16.30;;;9.60;;
33495;SDS011;19836;55.812;37.560;2024-01-25T02:06:24;13.32;;;8.82;;
33495;SDS011;19836;55.812;37.560;2024-01-25T02:08:50;12.55;;;9.02;;
33495;SDS011;19836;55.812;37.560;2024-01-25T02:11:21;12.93;;;9.13;;
33495;SDS011;19836;55.812;37.560;2024-01-25T02:13:50;11.85;;;8.52;;
33495;SDS011;19836;55.812;37.560;2024-01-25T02:16:17;11.98;;;8.85;;
33495;SDS011;19836;55.812;37.560;2024-01-25T02:19:04;12.18;;;9.23;;
33495;SDS011;19836;55.812;37.560;2024-01-25T02:21:30;14.75;;;8.38;;
33495;SDS011;19836;55.812;37.560;2024-01-25T02:23:57;13.10;;;8.32;;
33495;SDS011;19836;55.812;37.560;2024-01-25T02:26:23;12.90;;;8.88;;
33495;SDS011;19836;55.812;37.560;2024-01-25T02:28:50;11.82;;;9.07;;
33495;SDS011;19836;55.812;37.560;2024-01-25T02:31:16;11.30;;;8.25;;
33495;SDS011;19836;55.812;37.560;2024-01-25T02:33:43;13.35;;;8.55;;
33495;SDS011;19836;55.812;37.560;2024-01-25T02:36:17;13.95;;;9.45;;
33495;SDS011;19836;55.812;37.560;2024-01-25T02:38:43;10.20;;;7.22;;
33495;SDS011;19836;55.812;37.560;2024-01-25T02:41:10;8.95;;;5.90;;
33495;SDS011;19836;55.812;37.560;2024-01-25T02:43:37;11.18;;;8.43;;
33495;SDS011;19836;55.812;37.560;2024-01-25T02:46:03;9.95;;;7.57;;
33495;SDS011;19836;55.812;37.560;2024-01-25T02:48:32;8.63;;;6.75;;
33495;SDS011;19836;55.812;37.560;2024-01-25T02:51:00;9.05;;;6.60;;
33495;SDS011;19836;55.812;37.560;2024-01-25T02:53:29;11.02;;;8.00;;
33495;SDS011;19836;55.812;37.560;2024-01-25T02:55:55;13.43;;;8.23;;
33495;SDS011;19836;55.812;37.560;2024-01-25T02:58:24;11.23;;;8.00;;
33495;SDS011;19836;55.812;37.560;2024-01-25T03:00:50;10.38;;;7.70;;
33495;SDS011;19836;55.812;37.560;2024-01-25T03:03:16;13.18;;;7.68;;
33495;SDS011;19836;55.812;37.560;2024-01-25T03:05:43;10.73;;;7.13;;
33495;SDS011;19836;55.812;37.560;2024-01-25T03:08:09;12.30;;;8.88;;
33495;SDS011;19836;55.812;37.560;2024-01-25T03:10:35;12.02;;;8.00;;
33495;SDS011;19836;55.812;37.560;2024-01-25T03:13:02;11.48;;;7.65;;
33495;SDS011;19836;55.812;37.560;2024-01-25T03:38:42;14.95;;;8.48;;
33495;SDS011;19836;55.812;37.560;2024-01-25T03:41:09;12.90;;;8.18;;
33495;SDS011;19836;55.812;37.560;2024-01-25T03:43:35;10.55;;;7.88;;
33495;SDS011;19836;55.812;37.560;2024-01-25T03:46:02;13.10;;;8.50;;
33495;SDS011;19836;55.812;37.560;2024-01-25T03:48:44;11.07;;;7.63;;
33495;SDS011;19836;55.812;37.560;2024-01-25T03:51:10;11.40;;;8.15;;
33495;SDS011;19836;55.812;37.560;2024-01-25T03:53:36;11.90;;;7.95;;
33495;SDS011;19836;55.812;37.560;2024-01-25T03:56:02;12.27;;;8.20;;
33495;SDS011;19836;55.812;37.560;2024-01-25T03:58:29;10.88;;;7.93;;
33495;SDS011;19836;55.812;37.560;2024-01-25T04:07:16;11.32;;;6.88;;
33495;SDS011;19836;55.812;37.560;2024-01-25T04:10:10;9.82;;;6.72;;
33495;SDS011;19836;55.812;37.560;2024-01-25T04:12:36;9.20;;;6.93;;
33495;SDS011;19836;55.812;37.560;2024-01-25T04:15:02;12.50;;;7.35;;
33495;SDS011;19836;55.812;37.560;2024-01-25T04:17:30;8.50;;;7.30;;
33495;SDS011;19836;55.812;37.560;2024-01-25T04:19:56;9.88;;;6.07;;
33495;SDS011;19836;55.812;37.560;2024-01-25T04:22:22;10.25;;;7.03;;
33495;SDS011;19836;55.812;37.560;2024-01-25T04:24:49;10.40;;;6.85;;
33495;SDS011;19836;55.812;37.560;2024-01-25T04:27:15;9.98;;;7.13;;
33495;SDS011;19836;55.812;37.560;2024-01-25T04:29:42;9.82;;;6.95;;
33495;SDS011;19836;55.812;37.560;2024-01-25T04:32:09;9.75;;;7.00;;
33495;SDS011;19836;55.812;37.560;2024-01-25T04:34:35;10.40;;;6.85;;
33495;SDS011;19836;55.812;37.560;2024-01-25T04:37:07;12.48;;;6.90;;
33495;SDS011;19836;55.812;37.560;2024-01-25T04:48:04;10.60;;;6.63;;
33495;SDS011;19836;55.812;37.560;2024-01-25T04:51:17;10.95;;;7.07;;
33495;SDS011;19836;55.812;37.560;2024-01-25T04:54:31;11.80;;;6.90;;
33495;SDS011;19836;55.812;37.560;2024-01-25T04:58:13;12.57;;;6.53;;
33495;SDS011;19836;55.812;37.560;2024-01-25T05:01:56;8.05;;;6.18;;
33495;SDS011;19836;55.812;37.560;2024-01-25T05:05:12;9.35;;;5.75;;
33495;SDS011;19836;55.812;37.560;2024-01-25T05:07:45;9.10;;;5.88;;
33495;SDS011;19836;55.812;37.560;2024-01-25T05:15:09;8.70;;;5.32;;
33495;SDS011;19836;55.812;37.560;2024-01-25T05:19:11;9.52;;;7.03;;
33495;SDS011;19836;55.812;37.560;2024-01-25T05:23:04;9.88;;;6.63;;
33495;SDS011;19836;55.812;37.560;2024-01-25T06:36:58;9.65;;;7.10;;
33495;SDS011;19836;55.812;37.560;2024-01-25T06:39:28;9.95;;;7.40;;
33495;SDS011;19836;55.812;37.560;2024-01-25T06:41:57;9.82;;;7.63;;
33495;SDS011;19836;55.812;37.560;2024-01-25T06:44:25;11.07;;;8.35;;
33495;SDS011;19836;55.812;37.560;2024-01-25T06:47:02;11.68;;;7.55;;
33495;SDS011;19836;55.812;37.560;2024-01-25T06:50:16;13.18;;;8.77;;
33495;SDS011;19836;55.812;37.560;2024-01-25T06:52:45;11.18;;;8.43;;
33495;SDS011;19836;55.812;37.560;2024-01-25T06:55:33;12.18;;;8.50;;
33495;SDS011;19836;55.812;37.560;2024-01-25T06:58:54;10.05;;;7.43;;
33495;SDS011;19836;55.812;37.560;2024-01-25T07:12:26;11.65;;;8.18;;
33495;SDS011;19836;55.812;37.560;2024-01-25T07:14:58;10.85;;;7.55;;
33495;SDS011;19836;55.812;37.560;2024-01-25T07:17:24;11.93;;;7.90;;
33495;SDS011;19836;55.812;37.560;2024-01-25T07:20:03;11.85;;;7.93;;
33495;SDS011;19836;55.812;37.560;2024-01-25T07:22:29;11.32;;;8.40;;
33495;SDS011;19836;55.812;37.560;2024-01-25T07:24:56;10.30;;;8.48;;
33495;SDS011;19836;55.812;37.560;2024-01-25T07:27:22;10.77;;;7.07;;
33495;SDS011;19836;55.812;37.560;2024-01-25T07:29:48;10.02;;;6.53;;
33495;SDS011;19836;55.812;37.560;2024-01-25T07:32:14;10.45;;;7.90;;
33495;SDS011;19836;55.812;37.560;2024-01-25T07:34:40;10.48;;;7.57;;
33495;SDS011;19836;55.812;37.560;2024-01-25T07:37:06;11.38;;;8.20;;
33495;SDS011;19836;55.812;37.560;2024-01-25T07:39:32;9.65;;;6.82;;
33495;SDS011;19836;55.812;37.560;2024-01-25T07:41:57;11.27;;;8.35;;
33495;SDS011;19836;55.812;37.560;2024-01-25T07:44:23;12.07;;;8.52;;
33495;SDS011;19836;55.812;37.560;2024-01-25T07:46:49;9.95;;;7.32;;
33495;SDS011;19836;55.812;37.560;2024-01-25T07:49:15;12.00;;;7.75;;
33495;SDS011;19836;55.812;37.560;2024-01-25T07:51:41;11.40;;;8.07;;
33495;SDS011;19836;55.812;37.560;2024-01-25T07:54:07;13.18;;;8.35;;
33495;SDS011;19836;55.812;37.560;2024-01-25T07:56:32;11.52;;;8.00;;
33495;SDS011;19836;55.812;37.560;2024-01-25T07:58:58;12.68;;;6.95;;
33495;SDS011;19836;55.812;37.560;2024-01-25T08:01:25;12.63;;;7.60;;
33495;SDS011;19836;55.812;37.560;2024-01-25T08:10:42;12.98;;;7.85;;
33495;SDS011;19836;55.812;37.560;2024-01-25T08:13:11;13.40;;;7.95;;
33495;SDS011;19836;55.812;37.560;2024-01-25T08:15:41;9.00;;;6.45;;
33495;SDS011;19836;55.812;37.560;2024-01-25T08:18:10;11.23;;;7.32;;
33495;SDS011;19836;55.812;37.560;2024-01-25T08:20:39;11.43;;;7.63;;
33495;SDS011;19836;55.812;37.560;2024-01-25T08:23:05;8.85;;;5.45;;
33495;SDS011;19836;55.812;37.560;2024-01-25T08:25:34;11.05;;;7.57;;
33495;SDS011;19836;55.812;37.560;2024-01-25T08:28:00;9.48;;;6.72;;
33495;SDS011;19836;55.812;37.560;2024-01-25T08:34:21;8.65;;;6.20;;
33495;SDS011;19836;55.812;37.560;2024-01-25T08:36:48;10.60;;;6.95;;
33495;SDS011;19836;55.812;37.560;2024-01-25T08:39:14;10.48;;;7.50;;
33495;SDS011;19836;55.812;37.560;2024-01-25T08:42:09;9.32;;;6.93;;
33495;SDS011;19836;55.812;37.560;2024-01-25T08:44:37;11.45;;;7.00;;
33495;SDS011;19836;55.812;37.560;2024-01-25T09:01:35;10.02;;;6.90;;
33495;SDS011;19836;55.812;37.560;2024-01-25T09:31:48;8.75;;;6.35;;
33495;SDS011;19836;55.812;37.560;2024-01-25T09:47:55;8.60;;;5.70;;
33495;SDS011;19836;55.812;37.560;2024-01-25T10:37:47;7.97;;;6.32;;
33495;SDS011;19836;55.812;37.560;2024-01-25T13:30:02;13.85;;;10.32;;
33495;SDS011;19836;55.812;37.560;2024-01-25T13:34:30;15.80;;;10.32;;
33495;SDS011;19836;55.812;37.560;2024-01-25T13:58:02;17.85;;;10.55;;
33495;SDS011;19836;55.812;37.560;2024-01-25T14:09:28;16.73;;;11.88;;
33495;SDS011;19836;55.812;37.560;2024-01-25T14:13:04;15.02;;;10.75;;
33495;SDS011;19836;55.812;37.560;2024-01-25T14:49:26;16.75;;;11.50;;
33495;SDS011;19836;55.812;37.560;2024-01-25T14:51:53;17.48;;;12.15;;
33495;SDS011;19836;55.812;37.560;2024-01-25T14:54:25;18.13;;;12.35;;
33495;SDS011;19836;55.812;37.560;2024-01-25T14:56:51;17.65;;;12.73;;
33495;SDS011;19836;55.812;37.560;2024-01-25T14:59:18;17.27;;;12.80;;
33495;SDS011;19836;55.812;37.560;2024-01-25T15:01:48;18.75;;;12.90;;
33495;SDS011;19836;55.812;37.560;2024-01-25T15:04:51;18.10;;;12.80;;
33495;SDS011;19836;55.812;37.560;2024-01-25T15:32:08;18.75;;;12.88;;
33495;SDS011;19836;55.812;37.560;2024-01-25T15:35:05;18.52;;;14.05;;
33495;SDS011;19836;55.812;37.560;2024-01-25T15:44:16;17.55;;;13.25;;
33495;SDS011;19836;55.812;37.560;2024-01-25T15:46:55;17.98;;;13.65;;
33495;SDS011;19836;55.812;37.560;2024-01-25T15:49:36;17.48;;;14.38;;
33495;SDS011;19836;55.812;37.560;2024-01-25T15:52:19;17.63;;;14.02;;
33495;SDS011;19836;55.812;37.560;2024-01-25T15:55:40;17.42;;;13.65;;
33495;SDS011;19836;55.812;37.560;2024-01-25T15:58:23;17.63;;;12.98;;
33495;SDS011;19836;55.812;37.560;2024-01-25T16:16:16;18.13;;;14.30;;
33495;SDS011;19836;55.812;37.560;2024-01-25T16:18:56;17.38;;;13.13;;
33495;SDS011;19836;55.812;37.560;2024-01-25T16:27:48;15.07;;;11.25;;
33495;SDS011;19836;55.812;37.560;2024-01-25T16:30:26;17.67;;;12.88;;
33495;SDS011;19836;55.812;37.560;2024-01-25T16:32:57;18.23;;;13.40;;
33495;SDS011;19836;55.812;37.560;2024-01-25T16:35:27;17.35;;;13.43;;
33495;SDS011;19836;55.812;37.560;2024-01-25T16:37:53;17.90;;;13.13;;
33495;SDS011;19836;55.812;37.560;2024-01-25T16:40:20;17.35;;;13.02;;
33495;SDS011;19836;55.812;37.560;2024-01-25T16:42:46;19.25;;;13.75;;
33495;SDS011;19836;55.812;37.560;2024-01-25T16:45:12;19.15;;;14.23;;
33495;SDS011;19836;55.812;37.560;2024-01-25T16:47:38;16.70;;;12.73;;
33495;SDS011;19836;55.812;37.560;2024-01-25T16:50:05;17.92;;;13.55;;
33495;SDS011;19836;55.812;37.560;2024-01-25T16:52:33;17.92;;;13.00;;
33495;SDS011;19836;55.812;37.560;2024-01-25T16:55:00;18.42;;;13.55;;
33495;SDS011;19836;55.812;37.560;2024-01-25T16:57:35;18.30;;;12.80;;
33495;SDS011;19836;55.812;37.560;2024-01-25T17:00:40;19.73;;;12.23;;
33495;SDS011;19836;55.812;37.560;2024-01-25T17:06:34;18.58;;;12.40;;
33495;SDS011;19836;55.812;37.560;2024-01-25T17:23:10;17.95;;;13.23;;
33495;SDS011;19836;55.812;37.560;2024-01-25T17:25:40;18.55;;;13.40;;
33495;SDS011;19836;55.812;37.560;2024-01-25T17:28:32;17.80;;;12.73;;
33495;SDS011;19836;55.812;37.560;2024-01-25T17:34:57;18.00;;;13.10;;
33495;SDS011;19836;55.812;37.560;2024-01-25T17:37:30;19.25;;;13.82;;
33495;SDS011;19836;55.812;37.560;2024-01-25T17:40:01;19.00;;;13.10;;
33495;SDS011;19836;55.812;37.560;2024-01-25T17:42:38;19.23;;;13.27;;
33495;SDS011;19836;55.812;37.560;2024-01-25T17:45:29;22.80;;;15.23;;
33495;SDS011;19836;55.812;37.560;2024-01-25T17:48:00;18.35;;;14.30;;
33495;SDS011;19836;55.812;37.560;2024-01-25T17:56:55;19.38;;;13.57;;
33495;SDS011;19836;55.812;37.560;2024-01-25T17:59:25;20.55;;;13.93;;
33495;SDS011;19836;55.812;37.560;2024-01-25T18:01:53;20.08;;;13.98;;
33495;SDS011;19836;55.812;37.560;2024-01-25T18:04:21;19.33;;;13.32;;
33495;SDS011;19836;55.812;37.560;2024-01-25T18:06:49;18.92;;;13.68;;
33495;SDS011;19836;55.812;37.560;2024-01-25T18:09:48;18.95;;;14.10;;
33495;SDS011;19836;55.812;37.560;2024-01-25T18:22:31;19.30;;;13.20;;
33495;SDS011;19836;55.812;37.560;2024-01-25T18:25:04;17.75;;;14.02;;
33495;SDS011;19836;55.812;37.560;2024-01-25T18:30:25;21.77;;;15.20;;
33495;SDS011;19836;55.812;37.560;2024-01-25T18:44:20;19.50;;;14.18;;
33495;SDS011;19836;55.812;37.560;2024-01-25T18:46:49;20.47;;;14.93;;
33495;SDS011;19836;55.812;37.560;2024-01-25T18:49:17;21.27;;;14.95;;
33495;SDS011;19836;55.812;37.560;2024-01-25T19:15:07;19.83;;;13.75;;
33495;SDS011;19836;55.812;37.560;2024-01-25T19:17:49;19.90;;;13.35;;
33495;SDS011;19836;55.812;37.560;2024-01-25T19:20:16;19.52;;;14.52;;
33495;SDS011;19836;55.812;37.560;2024-01-25T19:22:44;21.40;;;14.27;;
33495;SDS011;19836;55.812;37.560;2024-01-25T19:29:10;20.33;;;14.82;;
33495;SDS011;19836;55.812;37.560;2024-01-25T19:31:36;20.30;;;14.02;;
33495;SDS011;19836;55.812;37.560;2024-01-25T19:34:03;19.75;;;14.18;;
33495;SDS011;19836;55.812;37.560;2024-01-25T19:36:32;20.17;;;14.38;;
33495;SDS011;19836;55.812;37.560;2024-01-25T19:38:58;22.63;;;14.27;;
33495;SDS011;19836;55.812;37.560;2024-01-25T19:41:25;20.15;;;14.02;;
33495;SDS011;19836;55.812;37.560;2024-01-25T19:43:52;19.20;;;13.95;;
33495;SDS011;19836;55.812;37.560;2024-01-25T19:46:22;24.23;;;15.85;;
33495;SDS011;19836;55.812;37.560;2024-01-25T19:48:49;20.52;;;15.50;;
33495;SDS011;19836;55.812;37.560;2024-01-25T19:51:16;20.58;;;14.45;;
33495;SDS011;19836;55.812;37.560;2024-01-25T19:54:19;21.67;;;14.35;;
33495;SDS011;19836;55.812;37.560;2024-01-25T19:56:48;20.88;;;14.43;;
33495;SDS011;19836;55.812;37.560;2024-01-25T19:59:14;19.95;;;13.75;;
33495;SDS011;19836;55.812;37.560;2024-01-25T20:01:40;20.73;;;15.13;;
33495;SDS011;19836;55.812;37.560;2024-01-25T20:04:07;21.05;;;13.52;;
33495;SDS011;19836;55.812;37.560;2024-01-25T20:06:35;21.08;;;14.60;;
33495;SDS011;19836;55.812;37.560;2024-01-25T20:18:46;20.08;;;13.88;;
33495;SDS011;19836;55.812;37.560;2024-01-25T20:21:14;22.20;;;14.98;;
33495;SDS011;19836;55.812;37.560;2024-01-25T20:23:40;21.55;;;14.40;;
33495;SDS011;19836;55.812;37.560;2024-01-25T20:29:48;17.40;;;13.40;;
33495;SDS011;19836;55.812;37.560;2024-01-25T20:32:15;20.77;;;15.73;;
33495;SDS011;19836;55.812;37.560;2024-01-25T20:34:41;21.13;;;14.60;;
33495;SDS011;19836;55.812;37.560;2024-01-25T20:37:07;21.75;;;15.10;;
33495;SDS011;19836;55.812;37.560;2024-01-25T20:39:34;19.55;;;14.90;;
33495;SDS011;19836;55.812;37.560;2024-01-25T20:42:01;22.30;;;15.15;;
33495;SDS011;19836;55.812;37.560;2024-01-25T20:44:28;20.40;;;15.55;;
33495;SDS011;19836;55.812;37.560;2024-01-25T20:47:07;19.90;;;14.90;;
33495;SDS011;19836;55.812;37.560;2024-01-25T20:50:56;20.95;;;13.82;;
33495;SDS011;19836;55.812;37.560;2024-01-25T20:53:23;17.60;;;13.15;;
33495;SDS011;19836;55.812;37.560;2024-01-25T20:55:51;21.48;;;15.18;;
33495;SDS011;19836;55.812;37.560;2024-01-25T20:58:17;21.90;;;16.05;;
33495;SDS011;19836;55.812;37.560;2024-01-25T21:00:43;22.00;;;15.25;;
33495;SDS011;19836;55.812;37.560;2024-01-25T21:03:14;25.33;;;15.30;;
33495;SDS011;19836;55.812;37.560;2024-01-25T21:06:43;23.10;;;15.88;;
33495;SDS011;19836;55.812;37.560;2024-01-25T21:10:04;22.42;;;14.68;;
33495;SDS011;19836;55.812;37.560;2024-01-25T21:13:03;20.20;;;13.73;;
33495;SDS011;19836;55.812;37.560;2024-01-25T21:19:54;20.75;;;14.70;;
33495;SDS011;19836;55.812;37.560;2024-01-25T21:22:20;21.15;;;14.38;;
33495;SDS011;19836;55.812;37.560;2024-01-25T21:25:15;20.83;;;15.00;;
33495;SDS011;19836;55.812;37.560;2024-01-25T21:28:12;20.77;;;14.63;;
33495;SDS011;19836;55.812;37.560;2024-01-25T22:06:58;23.17;;;15.07;;
33495;SDS011;19836;55.812;37.560;2024-01-25T22:09:24;20.55;;;15.27;;
33495;SDS011;19836;55.812;37.560;2024-01-25T22:11:50;21.05;;;15.10;;
33495;SDS011;19836;55.812;37.560;2024-01-25T22:14:16;23.17;;;15.95;;
33495;SDS011;19836;55.812;37.560;2024-01-25T22:16:41;21.80;;;14.98;;
33495;SDS011;19836;55.812;37.560;2024-01-25T22:19:07;19.30;;;14.20;;
33495;SDS011;19836;55.812;37.560;2024-01-25T22:21:33;19.40;;;14.93;;
33495;SDS011;19836;55.812;37.560;2024-01-25T22:23:59;23.60;;;16.08;;
33495;SDS011;19836;55.812;37.560;2024-01-25T22:26:25;20.45;;;14.65;;
33495;SDS011;19836;55.812;37.560;2024-01-25T23:06:41;20.17;;;14.45;;
33495;SDS011;19836;55.812;37.560;2024-01-25T23:09:09;20.15;;;13.68;;
33495;SDS011;19836;55.812;37.560;2024-01-25T23:11:35;19.85;;;14.13;;
33495;SDS011;19836;55.812;37.560;2024-01-25T23:14:01;18.75;;;13.40;;
33495;SDS011;19836;55.812;37.560;2024-01-25T23:16:28;20.42;;;14.45;;
33495;SDS011;19836;55.812;37.560;2024-01-25T23:18:57;18.90;;;13.32;;
33495;SDS011;19836;55.812;37.560;2024-01-25T23:21:23;20.85;;;13.48;;
33495;SDS011;19836;55.812;37.560;2024-01-25T23:23:49;19.20;;;13.13;;
33495;SDS011;19836;55.812;37.560;2024-01-25T23:26:15;22.98;;;13.80;;
33495;SDS011;19836;55.812;37.560;2024-01-25T23:28:41;20.15;;;13.35;;
33495;SDS011;19836;55.812;37.560;2024-01-25T23:31:07;21.10;;;13.80;;
33495;SDS011;19836;55.812;37.560;2024-01-25T23:33:35;22.90;;;14.70;;
33495;SDS011;19836;55.812;37.560;2024-01-25T23:48:35;18.13;;;11.75;;
33495;SDS011;19836;55.812;37.560;2024-01-25T23:51:01;20.85;;;13.52;;
33495;SDS011;19836;55.812;37.560;2024-01-25T23:53:27;18.33;;;13.15;;
33495;SDS011;19836;55.812;37.560;2024-01-25T23:55:53;21.45;;;13.98;;
33495;SDS011;19836;55.812;37.560;2024-01-25T23:58:19;18.73;;;12.13;;
